Time Latitude Longitude Accuracy (66% radius in meters) Altitude (meters) Speed (km/hour) Bearing (degrees) Battery (%) GPS flag
09:19:38 60.402420 30.331223 4.5509996414185 77 2.1600000858307 264.79998779297 66 1 delete
09:19:28 60.402421 30.331302 4.5509996414185 75 0 0 66 1 delete
09:19:18 60.402459 30.331208 13.65299987793 75 2.2300000190735 167.89999389648 66 1 delete
09:19:17 60.402492 30.331204 13.65299987793 76 2.1400001049042 191.10000610352 66 1 delete
09:19:14 60.402568 30.331183 13.65299987793 75 1.7699999809265 161 66 1 delete
09:19:08 60.402674 30.331129 13.65299987793 74 3.6199998855591 178.80000305176 66 1 delete
09:19:07 60.402709 30.331128 13.65299987793 74 4 177.80000305176 66 1 delete
09:19:05 60.402769 30.331113 13.65299987793 75 3.210000038147 173.30000305176 66 1 delete
09:19:01 60.402887 30.331103 13.65299987793 74 2.8299999237061 179.5 66 1 delete
09:18:57 60.402971 30.331019 13.65299987793 75 2.8299999237061 167.60000610352 66 1 delete
09:18:48 60.403080 30.331043 15.170000076294 77 1.6200000047684 352 66 1 delete
09:18:46 60.403000 30.331128 18.203998565674 78 5.3600001335144 2.0999999046326 66 1 delete
09:18:39 60.402688 30.331135 13.65299987793 77 0.51999998092651 338.60000610352 66 1 delete
09:18:36 60.402631 30.331191 13.65299987793 77 3.6600000858307 342.70001220703 66 1 delete
09:18:35 60.402599 30.331220 13.65299987793 79 3.3900001049042 344.79998779297 66 1 delete
09:18:31 60.402484 30.331267 13.65299987793 80 2.9500000476837 12.300000190735 66 1 delete
09:18:26 60.402398 30.331222 15.170000076294 79 0 0 66 1 delete
09:18:22 60.402383 30.331221 15.170000076294 80 1.9199999570847 214.5 66 1 delete
09:18:18 60.402475 30.331194 15.170000076294 80 3.0499999523163 166 66 1 delete
09:18:15 60.402570 30.331167 15.170000076294 79 2.9300000667572 155.60000610352 66 1 delete
09:18:11 60.402669 30.331050 15.170000076294 78 3.5899999141693 166 66 1 delete
09:18:08 60.402775 30.330945 15.170000076294 77 4 177.69999694824 66 1 delete
09:18:06 60.402869 30.330964 13.65299987793 75 3.9300000667572 167.39999389648 66 1 delete
09:18:05 60.402905 30.330947 13.65299987793 75 3.7300000190735 165.10000610352 66 1 delete
09:18:03 60.402971 30.330914 13.65299987793 75 3.2699999809265 162.30000305176 66 1 delete
09:17:54 60.403094 30.330870 13.65299987793 76 0.97000002861023 195.39999389648 66 1 delete
09:17:44 60.403108 30.330895 13.65299987793 76 0 0 66 1 delete
09:17:33 60.403093 30.330908 13.65299987793 76 1.2300000190735 324.10000610352 66 1 delete
09:17:31 60.403069 30.330914 13.65299987793 76 0 0 66 1 delete
09:17:22 60.402979 30.330929 13.65299987793 77 2.6600000858307 332.29998779297 66 1 delete
09:17:18 60.402877 30.331000 13.65299987793 76 3.5199999809265 346 66 1 delete
09:17:15 60.402794 30.331078 13.65299987793 79 4.0999999046326 346.10000610352 66 1 delete
09:17:12 60.402710 30.331192 13.65299987793 83 4.4899997711182 346.5 66 1 delete
09:17:09 60.402590 30.331237 15.170000076294 83 3.25 343.20001220703 66 1 delete
09:17:05 60.402463 30.331301 13.65299987793 83 1.2799999713898 339.79998779297 66 1 delete
09:17:01 60.402439 30.331324 13.65299987793 82 0 0 66 1 delete
09:16:51 60.402399 30.331294 13.65299987793 82 1.2999999523163 334.60000610352 66 1 delete
09:16:41 60.402372 30.331337 13.65299987793 83 0 0 66 1 delete
10:16:41 60.402366 30.331519 15.170000076294 81 2.4200000762939 260.20001220703 66 0 delete
09:16:30 60.402380 30.331360 13.65299987793 82 0.15999999642372 195.30000305176 66 1 delete
09:16:19 60.402383 30.331357 13.65299987793 82 0 0 66 1 delete
09:16:09 60.402369 30.331406 13.65299987793 83 0.40999999642372 298.29998779297 66 1 delete
09:16:06 60.402366 30.331519 15.170000076294 81 2.4200000762939 260.20001220703 66 1 delete
09:16:02 60.402378 30.331745 16.687000274658 81 1.2699999809265 256.5 66 1 delete
09:15:58 60.402429 30.331927 15.170000076294 85 1.2400000095367 262.29998779297 66 1 delete
09:15:54 60.402434 30.332128 15.170000076294 82 1.2000000476837 277.60000610352 66 1 delete
09:15:48 60.402448 30.332312 15.170000076294 82 1.1900000572205 290.20001220703 66 1 delete
09:15:43 60.402431 30.332498 15.170000076294 80 1.8099999427795 293.20001220703 66 1 delete
09:15:37 60.402425 30.332693 15.170000076294 81 1.7999999523163 241 66 1 delete
09:15:32 60.402490 30.332860 13.65299987793 82 1.3799999952316 233 66 1 delete